createdAt,value
2022-12-31T00:01:45.747Z,1.33
2022-12-31T00:04:12.100Z,1.35
2022-12-31T00:06:38.495Z,1.33
2022-12-31T00:09:06.887Z,1.55
2022-12-31T00:11:34.809Z,1.58
2022-12-31T00:14:01.368Z,1.70
2022-12-31T00:16:33.982Z,1.60
2022-12-31T00:19:01.002Z,1.67
2022-12-31T00:21:29.777Z,2.00
2022-12-31T00:23:57.041Z,1.92
2022-12-31T00:26:26.270Z,2.03
2022-12-31T00:28:54.480Z,2.38
2022-12-31T00:31:39.791Z,2.33
2022-12-31T00:34:07.037Z,2.42
2022-12-31T00:36:37.543Z,2.83
2022-12-31T00:39:06.019Z,3.00
2022-12-31T00:41:32.954Z,2.90
2022-12-31T00:43:59.773Z,4.03
2022-12-31T00:46:26.968Z,3.72
2022-12-31T00:48:53.905Z,4.70
2022-12-31T00:51:23.237Z,5.60
2022-12-31T00:53:50.045Z,5.60
2022-12-31T00:56:19.200Z,5.53
2022-12-31T00:58:46.229Z,5.38
2022-12-31T01:01:21.074Z,6.20
2022-12-31T01:03:50.156Z,5.97
2022-12-31T01:06:16.669Z,6.43
2022-12-31T01:08:43.198Z,6.47
2022-12-31T01:11:22.469Z,6.00
2022-12-31T01:13:50.879Z,5.35
2022-12-31T01:16:19.078Z,5.57
2022-12-31T01:18:45.607Z,5.90
2022-12-31T01:21:13.641Z,4.80
2022-12-31T01:23:40.519Z,5.07
2022-12-31T01:26:09.276Z,4.72
2022-12-31T01:28:36.151Z,4.60
2022-12-31T01:31:07.248Z,5.40
2022-12-31T01:33:34.251Z,5.38
2022-12-31T01:36:08.539Z,6.55
2022-12-31T01:38:35.660Z,6.25
2022-12-31T01:41:03.349Z,5.93
2022-12-31T01:43:51.527Z,6.57
2022-12-31T01:46:25.537Z,6.40
2022-12-31T01:48:56.584Z,6.00
2022-12-31T01:51:25.522Z,6.35
2022-12-31T01:53:52.075Z,6.72
2022-12-31T01:56:22.094Z,6.68
2022-12-31T01:58:51.596Z,6.70
2022-12-31T02:01:24.618Z,6.63
2022-12-31T02:06:25.629Z,6.10
2022-12-31T02:08:52.009Z,5.88
2022-12-31T02:11:20.876Z,6.18
2022-12-31T02:13:47.288Z,5.65
2022-12-31T04:50:07.175Z,0.70
2022-12-31T04:52:40.310Z,0.65
2022-12-31T04:55:09.008Z,0.70
2022-12-31T04:57:35.537Z,0.60
2022-12-31T05:00:02.091Z,0.75
2022-12-31T05:02:29.883Z,0.70
2022-12-31T05:04:56.405Z,0.60
2022-12-31T05:07:22.807Z,0.60
2022-12-31T05:09:49.178Z,0.60
2022-12-31T05:12:15.559Z,0.60
2022-12-31T05:14:41.972Z,0.77
2022-12-31T05:17:08.336Z,0.60
2022-12-31T05:19:34.715Z,0.70
2022-12-31T05:22:19.779Z,0.70
2022-12-31T05:24:46.134Z,0.60
2022-12-31T05:27:12.513Z,0.95
2022-12-31T05:29:38.878Z,0.82
2022-12-31T05:32:05.325Z,0.70
2022-12-31T05:34:31.721Z,0.50
2022-12-31T05:36:58.077Z,0.40
2022-12-31T05:39:24.453Z,0.60
2022-12-31T05:41:50.809Z,0.40
2022-12-31T05:44:17.161Z,0.60
2022-12-31T05:46:43.577Z,0.40
2022-12-31T05:49:10.010Z,0.30
2022-12-31T05:51:36.404Z,0.38
2022-12-31T05:54:02.791Z,0.30
2022-12-31T05:56:29.261Z,0.28
2022-12-31T05:58:55.915Z,0.30
2022-12-31T06:01:22.733Z,0.30
2022-12-31T06:03:49.275Z,0.30
2022-12-31T06:06:15.693Z,0.22
2022-12-31T06:08:42.196Z,0.20
2022-12-31T06:11:08.740Z,0.40
2022-12-31T06:13:35.255Z,0.22
2022-12-31T06:16:06.452Z,0.40
2022-12-31T06:18:32.857Z,0.30
2022-12-31T06:20:59.233Z,0.20
2022-12-31T06:23:25.647Z,0.50
2022-12-31T06:25:52.094Z,0.25
2022-12-31T06:28:20.561Z,0.32
2022-12-31T06:30:47.387Z,0.40
2022-12-31T06:33:14.010Z,0.40
2022-12-31T06:35:40.419Z,0.57
2022-12-31T06:38:06.819Z,0.68
2022-12-31T06:40:33.183Z,0.90
2022-12-31T06:43:00.341Z,0.77
2022-12-31T06:45:27.030Z,0.60
2022-12-31T06:47:53.427Z,0.70
2022-12-31T06:50:19.817Z,0.70
2022-12-31T06:52:46.260Z,0.90
2022-12-31T06:55:13.723Z,0.85
2022-12-31T06:57:40.400Z,1.00
2022-12-31T07:00:07.374Z,1.00
2022-12-31T07:02:55.488Z,1.05
2022-12-31T07:05:55.755Z,1.33
2022-12-31T07:08:46.806Z,1.70
2022-12-31T07:11:23.561Z,1.52
2022-12-31T07:13:59.265Z,1.45
2022-12-31T07:16:50.299Z,1.42
2022-12-31T07:19:36.592Z,1.30
2022-12-31T07:22:03.789Z,0.90
2022-12-31T07:24:30.401Z,1.20
2022-12-31T07:27:12.586Z,1.23
2022-12-31T07:29:57.662Z,1.02
2022-12-31T07:32:45.264Z,1.27
2022-12-31T07:35:44.100Z,1.10
2022-12-31T07:38:24.834Z,1.27
2022-12-31T07:41:28.178Z,1.10
2022-12-31T07:44:04.314Z,0.93
2022-12-31T07:46:49.539Z,1.00
2022-12-31T07:49:16.190Z,0.70
2022-12-31T07:51:43.366Z,0.98
2022-12-31T07:54:13.856Z,0.98
2022-12-31T07:56:41.597Z,0.93
2022-12-31T07:59:17.416Z,0.90
2022-12-31T08:01:51.949Z,0.68
2022-12-31T08:04:32.523Z,0.93
2022-12-31T08:07:31.841Z,0.70
2022-12-31T08:10:39.245Z,1.02
2022-12-31T08:13:10.705Z,0.77
2022-12-31T08:15:38.512Z,0.80
2022-12-31T08:18:05.731Z,1.08
2022-12-31T08:20:37.268Z,0.98
2022-12-31T08:23:06.581Z,0.90
2022-12-31T08:26:30.477Z,0.80
2022-12-31T08:29:07.921Z,0.80
2022-12-31T08:32:04.433Z,1.10
2022-12-31T08:35:03.086Z,1.48
2022-12-31T08:37:41.615Z,1.10
2022-12-31T08:40:20.098Z,1.10
2022-12-31T08:43:01.502Z,0.90
2022-12-31T08:45:47.571Z,1.00
2022-12-31T08:48:26.609Z,0.90
2022-12-31T08:50:54.182Z,1.10
2022-12-31T08:53:20.888Z,0.85
2022-12-31T08:55:52.681Z,1.10
2022-12-31T08:59:04.539Z,1.10
2022-12-31T09:01:44.077Z,1.20
2022-12-31T09:04:33.769Z,1.02
2022-12-31T09:07:03.090Z,1.00
2022-12-31T09:09:44.163Z,0.88
2022-12-31T09:12:22.936Z,0.90
2022-12-31T09:15:21.022Z,1.33
2022-12-31T09:17:49.661Z,1.02
2022-12-31T09:20:42.991Z,0.85
2022-12-31T09:23:12.200Z,0.88
2022-12-31T09:26:09.436Z,1.00
2022-12-31T09:28:43.081Z,0.80
2022-12-31T09:31:14.652Z,1.10
2022-12-31T09:33:48.500Z,0.98
2022-12-31T09:36:23.988Z,1.35
2022-12-31T09:39:00.699Z,0.90
2022-12-31T09:41:37.734Z,1.08
2022-12-31T09:44:43.268Z,1.40
2022-12-31T09:47:18.500Z,0.88
2022-12-31T09:50:06.240Z,0.82
2022-12-31T09:53:13.433Z,0.60
2022-12-31T09:55:55.851Z,0.47
2022-12-31T09:58:29.823Z,0.70
2022-12-31T10:01:04.110Z,0.70
2022-12-31T10:03:42.854Z,0.60
2022-12-31T10:06:32.121Z,0.50
2022-12-31T10:09:10.393Z,0.60
2022-12-31T10:11:55.700Z,0.30
2022-12-31T10:14:46.980Z,0.30
2022-12-31T10:17:32.630Z,0.28
2022-12-31T10:20:28.714Z,0.40
2022-12-31T10:23:28.976Z,0.40
2022-12-31T10:26:10.575Z,0.35
2022-12-31T10:29:09.777Z,0.25
2022-12-31T10:31:57.950Z,0.60
2022-12-31T10:34:47.254Z,0.47
2022-12-31T10:37:29.603Z,0.40
2022-12-31T10:39:55.920Z,0.60
2022-12-31T10:42:38.400Z,0.40
2022-12-31T10:45:42.492Z,0.50
2022-12-31T10:48:52.635Z,0.43
2022-12-31T10:51:25.194Z,0.38
2022-12-31T10:54:00.707Z,0.40
2022-12-31T10:56:57.886Z,0.50
2022-12-31T11:00:01.700Z,0.50
2022-12-31T11:05:26.028Z,0.68
2022-12-31T11:08:23.952Z,0.82
2022-12-31T11:11:17.142Z,0.85
2022-12-31T11:13:49.728Z,0.65
2022-12-31T11:16:51.798Z,0.60
2022-12-31T11:19:38.680Z,0.68
2022-12-31T11:22:36.696Z,0.57
2022-12-31T11:25:12.711Z,0.90
2022-12-31T11:27:59.574Z,1.20
2022-12-31T11:30:53.961Z,0.90
2022-12-31T11:33:55.196Z,1.00
2022-12-31T11:36:42.204Z,1.00
2022-12-31T11:39:39.684Z,1.33
2022-12-31T11:42:34.523Z,0.90
2022-12-31T11:45:01.010Z,1.25
2022-12-31T11:48:12.184Z,0.95
2022-12-31T11:50:49.323Z,1.02
2022-12-31T11:53:43.857Z,0.77
2022-12-31T11:56:24.615Z,0.85
2022-12-31T11:58:56.027Z,1.08
2022-12-31T12:01:30.406Z,1.13
2022-12-31T12:04:18.579Z,1.10
2022-12-31T12:06:46.120Z,1.25
2022-12-31T12:09:26.592Z,1.42
2022-12-31T12:12:02.807Z,1.60
2022-12-31T12:14:43.914Z,1.42
2022-12-31T12:17:18.041Z,1.40
2022-12-31T12:19:47.696Z,1.05
2022-12-31T12:22:21.601Z,1.67
2022-12-31T12:25:03.042Z,1.40
2022-12-31T12:27:31.529Z,1.20
2022-12-31T12:29:58.089Z,1.48
2022-12-31T12:32:26.592Z,1.17
2022-12-31T12:34:53.983Z,1.30
2022-12-31T12:37:35.329Z,1.60
2022-12-31T12:40:29.888Z,1.40
2022-12-31T12:42:59.849Z,1.30
2022-12-31T12:45:30.073Z,1.45
2022-12-31T12:48:02.338Z,1.40
2022-12-31T12:50:42.126Z,1.50
2022-12-31T12:53:26.446Z,1.48
2022-12-31T12:56:11.013Z,1.42
2022-12-31T12:58:40.517Z,1.60
2022-12-31T13:01:25.145Z,1.35
2022-12-31T13:04:34.115Z,1.20
2022-12-31T13:07:19.275Z,1.80
2022-12-31T13:09:59.192Z,1.60
2022-12-31T13:12:56.711Z,1.48
2022-12-31T13:15:30.417Z,1.40
2022-12-31T13:18:29.344Z,1.20
2022-12-31T13:21:18.269Z,1.30
2022-12-31T13:23:57.582Z,1.60
2022-12-31T13:26:44.862Z,1.58
2022-12-31T13:29:20.895Z,1.20
2022-12-31T13:31:50.140Z,1.35
2022-12-31T13:34:22.227Z,1.42
2022-12-31T13:36:50.891Z,1.50
2022-12-31T13:39:41.842Z,1.50
2022-12-31T13:42:44.178Z,1.80
2022-12-31T13:45:17.042Z,1.80
2022-12-31T13:47:58.526Z,1.20
2022-12-31T13:50:34.514Z,1.80
2022-12-31T13:53:16.144Z,1.20
2022-12-31T13:55:56.625Z,1.40
2022-12-31T13:58:45.651Z,1.50
2022-12-31T14:01:22.429Z,1.40
2022-12-31T14:04:26.569Z,1.23
2022-12-31T14:07:14.727Z,1.85
2022-12-31T14:09:42.475Z,1.40
2022-12-31T14:12:35.208Z,1.38
2022-12-31T14:15:26.316Z,1.25
2022-12-31T14:18:01.642Z,1.45
2022-12-31T14:20:48.085Z,1.33
2022-12-31T14:23:44.717Z,1.20
2022-12-31T14:26:27.586Z,1.30
2022-12-31T14:29:14.000Z,1.58
2022-12-31T14:31:49.449Z,1.50
2022-12-31T14:34:18.855Z,1.35
2022-12-31T14:37:03.991Z,1.67
2022-12-31T14:39:36.575Z,1.25
2022-12-31T14:42:09.958Z,1.33
2022-12-31T14:44:50.857Z,1.83
2022-12-31T14:47:20.157Z,1.75
2022-12-31T14:50:11.405Z,2.03
2022-12-31T14:52:47.350Z,1.88
2022-12-31T14:55:15.088Z,1.30
2022-12-31T14:58:25.375Z,1.70
2022-12-31T15:00:35.137Z,1.38
2022-12-31T15:03:30.683Z,1.95
2022-12-31T15:06:34.897Z,1.60
2022-12-31T15:09:19.107Z,1.35
2022-12-31T15:11:54.836Z,1.30
2022-12-31T15:14:29.810Z,1.50
2022-12-31T15:17:29.226Z,1.42
2022-12-31T15:20:17.571Z,1.40
2022-12-31T15:22:46.318Z,1.48
2022-12-31T15:25:40.488Z,1.48
2022-12-31T15:28:32.269Z,1.65
2022-12-31T15:31:05.095Z,1.63
2022-12-31T15:33:53.351Z,1.67
2022-12-31T15:36:22.846Z,1.88
2022-12-31T15:38:50.342Z,2.10
2022-12-31T15:41:19.684Z,1.42
2022-12-31T15:43:52.032Z,1.48
2022-12-31T15:46:25.494Z,1.73
2022-12-31T15:49:03.902Z,1.83
2022-12-31T15:51:37.643Z,1.67
2022-12-31T15:54:05.515Z,2.20
2022-12-31T15:56:38.151Z,1.58
2022-12-31T15:59:11.780Z,2.17
2022-12-31T16:01:41.770Z,1.80
2022-12-31T16:04:24.228Z,1.85
2022-12-31T16:06:51.594Z,1.53
2022-12-31T16:09:23.213Z,1.65
2022-12-31T16:11:50.805Z,1.75
2022-12-31T16:14:35.844Z,2.10
2022-12-31T16:17:03.023Z,1.90
2022-12-31T16:19:35.375Z,2.00
2022-12-31T16:22:14.435Z,2.30
2022-12-31T16:25:02.894Z,2.35
2022-12-31T16:27:29.995Z,2.38
2022-12-31T16:30:02.097Z,2.30
2022-12-31T16:32:35.583Z,2.53
2022-12-31T16:35:02.152Z,2.65
2022-12-31T16:37:28.695Z,2.72
2022-12-31T16:40:16.604Z,1.88
2022-12-31T16:42:46.655Z,2.53
2022-12-31T16:45:30.967Z,2.00
2022-12-31T16:48:14.711Z,2.05
2022-12-31T16:50:49.386Z,2.50
2022-12-31T16:53:20.056Z,2.40
2022-12-31T16:56:01.393Z,2.40
2022-12-31T16:58:33.216Z,2.05
2022-12-31T17:01:13.664Z,2.08
2022-12-31T17:03:45.391Z,2.13
2022-12-31T17:06:16.166Z,2.05
2022-12-31T17:08:55.732Z,2.15
2022-12-31T17:11:31.268Z,2.47
2022-12-31T17:14:07.306Z,2.50
2022-12-31T17:16:35.746Z,2.30
2022-12-31T17:19:03.957Z,2.35
2022-12-31T17:21:32.259Z,2.35
2022-12-31T17:24:05.418Z,2.10
2022-12-31T17:26:35.069Z,2.55
2022-12-31T17:29:02.953Z,2.10
2022-12-31T17:31:33.727Z,2.17
2022-12-31T17:34:06.124Z,1.90
2022-12-31T17:36:32.566Z,2.13
2022-12-31T17:39:17.765Z,2.08
2022-12-31T17:41:45.895Z,1.98
2022-12-31T17:44:19.808Z,2.10
2022-12-31T17:46:46.738Z,1.90
2022-12-31T17:49:16.506Z,2.03
2022-12-31T17:51:47.479Z,2.33
2022-12-31T17:54:15.575Z,1.95
2022-12-31T17:56:42.503Z,2.00
2022-12-31T17:59:33.199Z,1.88
2022-12-31T18:02:01.868Z,1.65
2022-12-31T18:04:28.373Z,1.90
2022-12-31T18:06:54.672Z,1.92
2022-12-31T18:09:21.053Z,2.20
2022-12-31T18:11:47.475Z,2.22
2022-12-31T18:14:15.236Z,2.28
2022-12-31T18:16:42.230Z,2.30
2022-12-31T18:19:37.827Z,2.03
2022-12-31T18:22:02.227Z,2.25
2022-12-31T18:24:28.528Z,2.30
2022-12-31T18:26:55.165Z,2.10
2022-12-31T18:29:22.256Z,1.95
2022-12-31T18:31:49.687Z,2.15
2022-12-31T18:34:17.784Z,2.13
2022-12-31T18:36:44.734Z,2.40
2022-12-31T18:39:11.334Z,1.80
2022-12-31T18:41:50.837Z,2.38
2022-12-31T18:44:17.529Z,2.00
2022-12-31T18:46:43.890Z,2.35
2022-12-31T18:49:10.244Z,1.80
2022-12-31T18:51:36.735Z,1.80
2022-12-31T18:54:04.641Z,2.00
2022-12-31T18:56:31.368Z,2.40
2022-12-31T18:58:59.521Z,2.00
2022-12-31T19:01:38.044Z,2.42
2022-12-31T19:04:14.979Z,1.58
2022-12-31T19:06:42.455Z,2.38
2022-12-31T19:09:30.980Z,2.33
2022-12-31T19:11:56.096Z,2.15
2022-12-31T19:14:24.503Z,1.95
2022-12-31T19:16:52.266Z,2.33
2022-12-31T19:19:18.896Z,2.33
2022-12-31T19:21:45.654Z,2.10
2022-12-31T19:24:24.432Z,2.30
2022-12-31T19:26:50.793Z,2.10
2022-12-31T19:29:19.576Z,2.10
2022-12-31T19:31:46.173Z,1.92
2022-12-31T19:34:12.828Z,1.98
2022-12-31T19:36:44.059Z,2.20
2022-12-31T19:39:16.083Z,2.47
2022-12-31T19:41:43.699Z,2.30
2022-12-31T19:44:18.196Z,2.00
2022-12-31T19:46:45.300Z,2.13
2022-12-31T19:49:14.682Z,2.20
2022-12-31T19:51:41.637Z,2.25
2022-12-31T19:54:08.528Z,2.10
2022-12-31T19:56:35.030Z,2.17
2022-12-31T19:59:06.239Z,2.05
2022-12-31T20:01:32.667Z,2.25
2022-12-31T20:03:59.251Z,2.45
2022-12-31T20:06:25.580Z,2.70
2022-12-31T20:08:51.891Z,2.20
2022-12-31T20:11:21.011Z,2.10
2022-12-31T20:13:48.811Z,2.45
2022-12-31T20:16:17.403Z,2.50
2022-12-31T20:18:45.805Z,2.47
2022-12-31T20:21:18.862Z,2.25
2022-12-31T20:26:11.643Z,2.08
2022-12-31T20:28:38.556Z,2.03
2022-12-31T20:31:06.992Z,2.45
2022-12-31T20:33:33.896Z,3.38
2022-12-31T20:36:05.109Z,1.95
2022-12-31T20:38:31.519Z,2.30
2022-12-31T20:41:16.746Z,1.85
2022-12-31T20:43:43.953Z,2.60
2022-12-31T20:46:17.914Z,2.78
2022-12-31T20:48:45.441Z,2.53
2022-12-31T20:51:13.406Z,2.40
2022-12-31T20:53:40.320Z,2.38
2022-12-31T20:56:08.779Z,2.42
2022-12-31T20:58:35.957Z,2.60
2022-12-31T21:01:06.007Z,2.50
2022-12-31T21:06:19.018Z,2.80
2022-12-31T21:08:45.697Z,2.72
2022-12-31T21:11:31.675Z,2.45
2022-12-31T21:13:59.287Z,2.50
2022-12-31T21:16:27.023Z,2.70
2022-12-31T21:18:54.117Z,2.72
2022-12-31T21:21:20.608Z,2.70
2022-12-31T21:23:46.954Z,3.00
2022-12-31T21:26:13.441Z,3.17
2022-12-31T21:28:39.814Z,2.83
2022-12-31T21:31:08.106Z,2.45
2022-12-31T21:33:34.998Z,2.67
2022-12-31T21:36:04.667Z,2.88
2022-12-31T21:38:31.412Z,2.92
2022-12-31T21:41:05.642Z,2.20
2022-12-31T21:43:32.003Z,2.97
2022-12-31T21:46:06.858Z,2.60
2022-12-31T21:48:33.777Z,2.70
2022-12-31T21:51:13.033Z,2.92
2022-12-31T21:53:40.098Z,2.80
2022-12-31T21:56:11.229Z,2.60
2022-12-31T21:58:43.486Z,2.58
2022-12-31T22:01:41.483Z,3.00
2022-12-31T22:04:28.161Z,2.55
2022-12-31T22:06:54.389Z,2.83
2022-12-31T22:09:20.728Z,3.15
2022-12-31T22:11:47.600Z,3.20
2022-12-31T22:14:13.950Z,3.05
2022-12-31T22:16:40.298Z,3.05
2022-12-31T22:19:06.622Z,2.80
2022-12-31T22:21:32.995Z,2.83
2022-12-31T22:23:59.424Z,2.85
2022-12-31T22:26:28.701Z,3.08
2022-12-31T22:28:59.057Z,2.70
2022-12-31T22:31:29.688Z,2.60
2022-12-31T22:33:56.303Z,2.53
2022-12-31T22:36:23.534Z,2.95
2022-12-31T22:38:53.850Z,3.35
2022-12-31T22:41:22.103Z,2.75
2022-12-31T22:43:51.052Z,2.90
2022-12-31T22:46:20.923Z,3.10
2022-12-31T22:48:47.901Z,2.78
2022-12-31T22:51:15.695Z,2.45
2022-12-31T22:53:43.420Z,2.83
2022-12-31T22:56:13.436Z,2.45
2022-12-31T22:58:40.237Z,2.90
2022-12-31T23:01:08.976Z,2.85
2022-12-31T23:09:44.947Z,5.78
2022-12-31T23:12:11.544Z,5.88
2022-12-31T23:14:56.496Z,6.93
2022-12-31T23:17:44.696Z,8.07
2022-12-31T23:20:33.157Z,5.78
2022-12-31T23:23:08.906Z,4.90
2022-12-31T23:26:00.198Z,5.35
2022-12-31T23:28:26.673Z,5.57
2022-12-31T23:30:53.768Z,5.38
2022-12-31T23:33:23.473Z,5.13
2022-12-31T23:35:50.326Z,4.85
2022-12-31T23:38:18.259Z,5.50
2022-12-31T23:40:45.635Z,4.95
2022-12-31T23:43:21.601Z,5.53
2022-12-31T23:45:50.388Z,4.68
2022-12-31T23:48:16.946Z,4.40
2022-12-31T23:50:47.638Z,4.90
2022-12-31T23:53:17.448Z,4.60
2022-12-31T23:55:43.928Z,3.92
2022-12-31T23:58:10.470Z,3.78
